createdAt,value
2022-10-11T00:00:36.206Z,100422.34
2022-10-11T00:03:03.296Z,100411.84
2022-10-11T00:05:30.372Z,100417.00
2022-10-11T00:07:57.126Z,100405.72
2022-10-11T00:10:24.652Z,100411.81
2022-10-11T00:12:52.598Z,100409.91
2022-10-11T00:15:21.240Z,100406.53
2022-10-11T00:17:48.156Z,100417.00
2022-10-11T00:20:15.045Z,100413.56
2022-10-11T00:22:41.936Z,100408.31
2022-10-11T00:25:09.778Z,100417.00
2022-10-11T00:27:36.782Z,100406.59
2022-10-11T00:30:04.414Z,100409.03
2022-10-11T00:32:32.631Z,100408.25
2022-10-11T00:35:04.608Z,100408.34
2022-10-11T00:37:35.062Z,100410.00
2022-10-11T00:40:01.852Z,100408.22
2022-10-11T00:42:28.668Z,100403.06
2022-10-11T00:45:19.463Z,100400.38
2022-10-11T00:47:46.179Z,100396.00
2022-10-11T00:50:22.309Z,100384.56
2022-10-11T00:52:56.132Z,100385.31
2022-10-11T00:55:23.249Z,100389.91
2022-10-11T00:57:50.057Z,100390.72
2022-10-11T01:00:16.808Z,100396.75
2022-10-11T01:02:43.906Z,100393.34
2022-10-11T01:05:28.664Z,100386.22
2022-10-11T01:07:56.565Z,100390.59
2022-10-11T01:10:23.276Z,100393.91
2022-10-11T01:13:10.306Z,100394.00
2022-10-11T01:15:39.972Z,100394.16
2022-10-11T01:18:08.596Z,100398.41
2022-10-11T01:20:44.559Z,100393.25
2022-10-11T01:23:31.814Z,100388.03
2022-10-11T01:26:02.091Z,100377.50
2022-10-11T01:28:29.602Z,100387.03
2022-10-11T01:30:57.319Z,100386.13
2022-10-11T01:33:44.318Z,100380.84
2022-10-11T01:36:17.134Z,100369.50
2022-10-11T01:38:48.003Z,100373.91
2022-10-11T01:41:19.972Z,100375.44
2022-10-11T01:43:46.851Z,100368.59
2022-10-11T01:46:13.621Z,100369.50
2022-10-11T01:48:54.050Z,100366.75
2022-10-11T01:51:24.778Z,100370.84
2022-10-11T01:54:10.888Z,100373.66
2022-10-11T01:56:37.644Z,100378.81
2022-10-11T01:59:23.610Z,100378.81
2022-10-11T02:02:02.770Z,100372.91
2022-10-11T02:04:33.834Z,100372.09
2022-10-11T02:07:07.626Z,100369.44
2022-10-11T02:09:37.948Z,100367.56
2022-10-11T02:12:10.329Z,100375.59
2022-10-11T02:14:39.041Z,100371.12
2022-10-11T02:17:10.593Z,100364.06
2022-10-11T02:19:38.932Z,100359.91
2022-10-11T02:22:06.613Z,100365.84
2022-10-11T02:24:36.882Z,100364.97
2022-10-11T02:27:04.577Z,100377.62
2022-10-11T02:29:32.280Z,100375.97
2022-10-11T02:31:58.997Z,100384.53
2022-10-11T02:34:34.166Z,100370.66
2022-10-11T02:37:03.628Z,100364.06
2022-10-11T02:39:45.683Z,100373.47
2022-10-11T02:42:17.791Z,100372.50
2022-10-11T02:44:46.797Z,100374.44
2022-10-11T02:47:13.654Z,100372.22
2022-10-11T02:49:40.515Z,100382.91
2022-10-11T02:52:07.656Z,100379.47
2022-10-11T02:54:34.863Z,100387.94
2022-10-11T02:57:01.582Z,100387.88
2022-10-11T02:59:29.125Z,100379.28
2022-10-11T03:01:55.954Z,100384.69
2022-10-11T03:04:22.922Z,100385.56
2022-10-11T03:06:50.548Z,100374.19
2022-10-11T03:09:17.536Z,100382.56
2022-10-11T03:11:44.243Z,100386.94
2022-10-11T03:14:11.907Z,100374.84
2022-10-11T03:16:38.697Z,100379.22
2022-10-11T03:19:05.611Z,100377.50
2022-10-11T03:21:32.673Z,100379.31
2022-10-11T03:23:59.413Z,100381.03
2022-10-11T03:26:27.199Z,100379.37
2022-10-11T03:28:54.855Z,100383.41
2022-10-11T03:31:23.733Z,100387.88
2022-10-11T03:33:50.678Z,100386.09
2022-10-11T03:36:17.689Z,100391.16
2022-10-11T03:38:44.488Z,100394.69
2022-10-11T03:41:11.220Z,100390.59
2022-10-11T03:43:38.399Z,100397.41
2022-10-11T03:46:05.466Z,100396.31
2022-10-11T03:48:32.832Z,100399.19
2022-10-11T03:50:59.834Z,100401.81
2022-10-11T03:53:26.630Z,100403.72
2022-10-11T03:55:54.330Z,100396.03
2022-10-11T03:58:23.129Z,100405.72
2022-10-11T04:00:50.171Z,100398.47
2022-10-11T04:03:17.174Z,100405.22
2022-10-11T04:05:43.947Z,100406.22
2022-10-11T04:08:28.799Z,100398.62
2022-10-11T04:10:55.850Z,100400.28
2022-10-11T04:13:22.634Z,100407.13
2022-10-11T04:15:49.361Z,100414.06
2022-10-11T04:18:16.362Z,100405.38
2022-10-11T04:20:43.104Z,100408.72
2022-10-11T04:23:09.876Z,100405.41
2022-10-11T04:25:38.215Z,100410.44
2022-10-11T04:28:05.057Z,100409.94
2022-10-11T04:30:31.854Z,100407.19
2022-10-11T04:32:58.872Z,100408.22
2022-10-11T04:35:25.762Z,100395.09
2022-10-11T04:37:52.493Z,100397.75
2022-10-11T04:40:19.695Z,100395.19
2022-10-11T04:42:46.530Z,100402.34
2022-10-11T04:45:13.279Z,100405.50
2022-10-11T04:47:41.171Z,100405.44
2022-10-11T04:50:08.109Z,100405.53
2022-10-11T04:52:34.918Z,100413.22
2022-10-11T04:55:02.075Z,100408.84
2022-10-11T04:57:28.837Z,100407.25
2022-10-11T04:59:55.644Z,100407.34
2022-10-11T05:02:24.108Z,100415.69
2022-10-11T05:04:51.205Z,100410.75
2022-10-11T05:07:17.966Z,100410.66
2022-10-11T05:09:44.965Z,100407.00
2022-10-11T05:12:11.781Z,100405.25
2022-10-11T05:14:38.632Z,100408.97
2022-10-11T05:17:06.442Z,100416.63
2022-10-11T05:19:33.192Z,100414.25
2022-10-11T05:21:59.963Z,100414.88
2022-10-11T05:24:27.044Z,100417.63
2022-10-11T05:26:53.885Z,100420.91
2022-10-11T05:29:20.839Z,100421.22
2022-10-11T05:31:47.856Z,100420.28
2022-10-11T05:34:14.752Z,100421.31
2022-10-11T05:36:41.498Z,100426.66
2022-10-11T05:39:08.795Z,100431.84
2022-10-11T05:41:35.681Z,100437.09
2022-10-11T05:44:02.770Z,100433.84
2022-10-11T05:46:29.812Z,100440.75
2022-10-11T05:48:56.713Z,100437.34
2022-10-11T05:51:23.516Z,100449.69
2022-10-11T05:53:50.542Z,100456.38
2022-10-11T05:56:19.239Z,100452.03
2022-10-11T05:58:46.280Z,100458.94
2022-10-11T06:01:22.376Z,100455.66
2022-10-11T06:03:49.707Z,100453.06
2022-10-11T06:06:16.611Z,100466.88
2022-10-11T06:08:43.781Z,100462.62
2022-10-11T06:11:12.153Z,100462.50
2022-10-11T06:13:39.318Z,100460.84
2022-10-11T06:16:06.868Z,100462.72
2022-10-11T06:18:34.505Z,100468.97
2022-10-11T06:21:01.315Z,100462.03
2022-10-11T06:23:28.301Z,100473.16
2022-10-11T06:26:09.324Z,100473.19
2022-10-11T06:28:37.234Z,100467.28
2022-10-11T06:31:05.245Z,100481.06
2022-10-11T06:33:32.287Z,100480.31
2022-10-11T06:35:59.922Z,100473.44
2022-10-11T06:38:27.289Z,100475.09
2022-10-11T06:40:54.030Z,100471.59
2022-10-11T06:43:20.831Z,100469.03
2022-10-11T06:45:47.849Z,100476.03
2022-10-11T06:48:14.615Z,100476.19
2022-10-11T06:50:59.075Z,100482.31
2022-10-11T06:53:27.527Z,100477.13
2022-10-11T06:55:54.286Z,100486.78
2022-10-11T06:58:21.037Z,100488.47
2022-10-11T07:00:48.425Z,100484.19
2022-10-11T07:03:16.231Z,100480.78
2022-10-11T07:05:43.021Z,100490.47
2022-10-11T07:08:10.299Z,100481.75
2022-10-11T07:10:37.145Z,100486.09
2022-10-11T07:13:03.905Z,100490.47
2022-10-11T07:15:31.012Z,100495.69
2022-10-11T07:17:58.170Z,100487.84
2022-10-11T07:20:25.035Z,100494.81
2022-10-11T07:22:52.061Z,100492.19
2022-10-11T07:25:19.003Z,100488.69
2022-10-11T07:27:45.728Z,100492.19
2022-10-11T07:30:12.855Z,100486.97
2022-10-11T07:32:39.706Z,100496.56
2022-10-11T07:35:06.694Z,100493.91
2022-10-11T07:37:34.014Z,100495.59
2022-10-11T07:40:00.770Z,100492.19
2022-10-11T07:42:27.519Z,100486.94
2022-10-11T07:44:54.570Z,100491.25
2022-10-11T07:47:21.331Z,100493.88
2022-10-11T07:49:48.292Z,100501.75
2022-10-11T07:52:15.274Z,100492.97
2022-10-11T07:54:42.213Z,100496.47
2022-10-11T07:57:08.937Z,100498.94
2022-10-11T07:59:36.088Z,100500.72
2022-10-11T08:02:02.942Z,100492.03
2022-10-11T08:04:30.158Z,100497.28
2022-10-11T08:06:56.908Z,100497.22
2022-10-11T08:09:23.656Z,100502.38
2022-10-11T08:11:50.674Z,100501.44
2022-10-11T08:14:18.343Z,100495.13
2022-10-11T08:16:45.089Z,100496.69
2022-10-11T08:19:12.349Z,100500.19
2022-10-11T08:21:39.121Z,100499.44
2022-10-11T08:24:06.314Z,100496.84
2022-10-11T08:26:33.729Z,100495.16
2022-10-11T08:29:04.585Z,100489.47
2022-10-11T08:31:31.527Z,100494.44
2022-10-11T08:33:58.574Z,100499.53
2022-10-11T08:36:25.356Z,100489.75
2022-10-11T08:38:52.264Z,100493.50
2022-10-11T08:41:37.337Z,100488.44
2022-10-11T08:44:09.131Z,100498.56
2022-10-11T08:46:37.979Z,100492.03
2022-10-11T08:49:05.458Z,100496.69
2022-10-11T08:51:39.992Z,100491.97
2022-10-11T08:54:11.126Z,100494.53
2022-10-11T08:56:39.888Z,100486.97
2022-10-11T08:59:12.368Z,100491.75
2022-10-11T09:01:43.000Z,100496.25
2022-10-11T09:04:16.078Z,100496.12
2022-10-11T09:06:47.277Z,100488.72
2022-10-11T09:09:24.402Z,100482.84
2022-10-11T09:12:05.530Z,100489.41
2022-10-11T09:14:53.813Z,100486.03
2022-10-11T09:17:26.696Z,100486.22
2022-10-11T09:20:16.684Z,100488.47
2022-10-11T09:22:52.760Z,100494.28
2022-10-11T09:25:27.221Z,100489.88
2022-10-11T09:28:03.319Z,100493.88
2022-10-11T09:30:30.345Z,100498.69
2022-10-11T09:33:03.911Z,100499.00
2022-10-11T09:35:32.545Z,100496.47
2022-10-11T09:38:00.445Z,100493.31
2022-10-11T09:40:35.263Z,100494.59
2022-10-11T09:43:02.213Z,100495.94
2022-10-11T09:45:28.873Z,100509.62
2022-10-11T09:47:56.351Z,100505.00
2022-10-11T09:50:25.771Z,100494.25
2022-10-11T09:52:53.489Z,100495.41
2022-10-11T09:55:36.917Z,100496.78
2022-10-11T09:58:04.900Z,100505.94
2022-10-11T10:00:33.826Z,100494.66
2022-10-11T10:03:02.648Z,100507.22
2022-10-11T10:05:29.304Z,100503.03
2022-10-11T10:08:11.230Z,100496.06
2022-10-11T10:10:39.435Z,100497.16
2022-10-11T10:13:07.181Z,100490.75
2022-10-11T10:15:34.938Z,100497.41
2022-10-11T10:18:02.093Z,100487.81
2022-10-11T10:20:31.766Z,100484.09
2022-10-11T10:22:59.805Z,100487.00
2022-10-11T10:25:33.252Z,100486.19
2022-10-11T10:28:01.282Z,100490.56
2022-10-11T10:30:33.054Z,100487.94
2022-10-11T10:33:06.233Z,100484.63
2022-10-11T10:35:33.343Z,100482.72
2022-10-11T10:38:05.815Z,100484.87
2022-10-11T10:40:43.168Z,100480.09
2022-10-11T10:43:15.666Z,100486.16
2022-10-11T10:46:03.511Z,100492.03
2022-10-11T10:49:23.569Z,100488.28
2022-10-11T10:51:38.970Z,100485.66
2022-10-11T10:54:13.898Z,100485.25
2022-10-11T10:56:44.111Z,100471.63
2022-10-11T10:59:31.452Z,100479.16
2022-10-11T11:02:06.762Z,100482.25
2022-10-11T11:04:44.661Z,100476.41
2022-10-11T11:07:32.936Z,100479.78
2022-10-11T11:10:12.583Z,100473.34
2022-10-11T11:12:57.486Z,100473.19
2022-10-11T11:15:32.493Z,100483.81
2022-10-11T11:18:21.202Z,100476.31
2022-10-11T11:21:07.065Z,100472.50
2022-10-11T11:23:51.845Z,100470.72
2022-10-11T11:26:21.996Z,100474.69
2022-10-11T11:28:57.991Z,100471.34
2022-10-11T11:31:29.579Z,100469.44
2022-10-11T11:34:15.172Z,100468.81
2022-10-11T11:36:58.662Z,100470.75
2022-10-11T11:39:26.353Z,100461.78
2022-10-11T11:41:54.111Z,100465.22
2022-10-11T11:44:27.161Z,100451.59
2022-10-11T11:47:01.807Z,100459.25
2022-10-11T11:49:31.152Z,100456.34
2022-10-11T11:51:58.170Z,100448.62
2022-10-11T11:54:43.959Z,100453.84
2022-10-11T11:57:29.769Z,100455.25
2022-10-11T12:00:25.988Z,100461.06
2022-10-11T12:02:52.910Z,100458.31
2022-10-11T12:05:25.228Z,100449.91
2022-10-11T12:07:53.883Z,100457.72
2022-10-11T12:10:25.143Z,100450.97
2022-10-11T12:13:10.781Z,100453.94
2022-10-11T12:15:37.754Z,100452.84
2022-10-11T12:18:05.889Z,100452.56
2022-10-11T12:20:33.436Z,100452.16
2022-10-11T12:23:01.424Z,100446.84
2022-10-11T12:25:33.235Z,100445.69
2022-10-11T12:28:01.335Z,100441.50
2022-10-11T12:30:50.896Z,100439.09
2022-10-11T12:33:22.292Z,100434.66
2022-10-11T12:35:55.386Z,100426.41
2022-10-11T12:38:22.405Z,100425.81
2022-10-11T12:40:54.363Z,100426.09
2022-10-11T12:43:29.018Z,100426.09
2022-10-11T12:45:55.985Z,100426.56
2022-10-11T12:48:31.900Z,100429.03
2022-10-11T12:51:03.799Z,100432.97
2022-10-11T12:53:50.616Z,100423.22
2022-10-11T12:57:03.312Z,100435.78
2022-10-11T12:59:30.415Z,100420.81
2022-10-11T13:02:00.016Z,100431.81
2022-10-11T13:04:29.245Z,100423.44
2022-10-11T13:07:06.606Z,100423.72
2022-10-11T13:09:39.210Z,100427.81
2022-10-11T13:12:07.605Z,100427.66
2022-10-11T13:14:36.996Z,100427.16
2022-10-11T13:17:03.969Z,100426.28
2022-10-11T13:19:33.398Z,100429.09
2022-10-11T13:22:02.465Z,100430.37
2022-10-11T13:24:37.014Z,100430.53
2022-10-11T13:27:04.843Z,100430.78
2022-10-11T13:29:40.037Z,100431.72
2022-10-11T13:32:14.055Z,100428.13
2022-10-11T13:34:40.911Z,100437.09
2022-10-11T13:37:08.828Z,100435.44
2022-10-11T13:39:36.649Z,100433.50
2022-10-11T13:42:10.859Z,100435.38
2022-10-11T13:44:42.315Z,100432.00
2022-10-11T13:47:19.094Z,100430.94
2022-10-11T13:49:47.658Z,100427.25
2022-10-11T13:52:26.077Z,100431.16
2022-10-11T13:54:55.302Z,100425.59
2022-10-11T13:57:22.874Z,100432.16
2022-10-11T13:59:49.565Z,100435.53
2022-10-11T14:02:18.453Z,100432.16
2022-10-11T14:04:49.058Z,100427.19
2022-10-11T14:07:25.879Z,100431.75
2022-10-11T14:09:53.312Z,100430.97
2022-10-11T14:12:25.885Z,100430.88
2022-10-11T14:14:52.859Z,100437.19
2022-10-11T14:17:20.493Z,100429.63
2022-10-11T14:19:47.817Z,100435.31
2022-10-11T14:22:15.817Z,100432.81
2022-10-11T14:24:43.148Z,100434.31
2022-10-11T14:27:11.542Z,100431.75
2022-10-11T14:29:41.932Z,100427.47
2022-10-11T14:32:10.935Z,100436.53
2022-10-11T14:34:37.866Z,100431.72
2022-10-11T14:37:04.560Z,100436.38
2022-10-11T14:39:31.876Z,100438.78
2022-10-11T14:41:58.942Z,100436.66
2022-10-11T14:44:25.587Z,100441.81
2022-10-11T14:46:54.301Z,100440.28
2022-10-11T14:49:22.692Z,100437.41
2022-10-11T14:51:50.013Z,100441.09
2022-10-11T14:54:18.927Z,100437.16
2022-10-11T14:56:46.041Z,100441.38
2022-10-11T14:59:13.926Z,100439.84
2022-10-11T15:01:40.747Z,100439.19
2022-10-11T15:04:07.933Z,100440.84
2022-10-11T15:06:36.788Z,100438.97
2022-10-11T15:09:05.834Z,100440.00
2022-10-11T15:11:32.956Z,100440.91
2022-10-11T15:14:01.027Z,100438.22
2022-10-11T15:16:27.832Z,100433.94
2022-10-11T15:18:54.793Z,100446.63
2022-10-11T15:21:22.710Z,100451.03
2022-10-11T15:23:49.996Z,100453.59
2022-10-11T15:26:18.628Z,100455.38
2022-10-11T15:28:45.742Z,100460.78
2022-10-11T15:31:12.559Z,100455.59
2022-10-11T15:33:39.714Z,100460.72
2022-10-11T15:36:07.395Z,100455.59
2022-10-11T15:38:35.204Z,100459.44
2022-10-11T15:41:02.230Z,100461.84
2022-10-11T15:43:29.028Z,100469.94
2022-10-11T15:45:55.940Z,100469.97
2022-10-11T15:48:23.927Z,100465.66
2022-10-11T15:50:50.857Z,100467.53
2022-10-11T15:53:21.792Z,100472.88
2022-10-11T15:55:49.999Z,100472.31
2022-10-11T15:58:25.090Z,100477.50
2022-10-11T16:00:55.431Z,100472.62
2022-10-11T16:03:26.105Z,100469.19
2022-10-11T16:05:53.154Z,100476.22
2022-10-11T16:08:19.934Z,100481.59
2022-10-11T16:10:47.632Z,100484.16
2022-10-11T16:13:14.374Z,100481.66
2022-10-11T16:15:43.113Z,100488.97
2022-10-11T16:18:10.771Z,100495.97
2022-10-11T16:20:38.601Z,100494.44
2022-10-11T16:23:05.531Z,100498.06
2022-10-11T16:25:32.550Z,100498.16
2022-10-11T16:27:59.262Z,100503.50
2022-10-11T16:30:26.651Z,100500.91
2022-10-11T16:32:53.700Z,100509.03
2022-10-11T16:35:23.512Z,100513.34
2022-10-11T16:37:53.620Z,100514.22
2022-10-11T16:40:22.427Z,100517.12
2022-10-11T16:42:49.131Z,100521.50
2022-10-11T16:45:16.313Z,100520.75
2022-10-11T16:47:43.620Z,100525.22
2022-10-11T16:50:10.484Z,100529.03
2022-10-11T16:52:37.169Z,100524.66
2022-10-11T16:55:04.372Z,100528.28
2022-10-11T16:57:31.028Z,100516.88
2022-10-11T17:00:02.141Z,100515.91
2022-10-11T17:02:33.060Z,100523.06
2022-10-11T17:04:59.879Z,100523.81
2022-10-11T17:07:28.007Z,100530.03
2022-10-11T17:09:56.203Z,100531.22
2022-10-11T17:12:23.884Z,100535.56
2022-10-11T17:14:51.551Z,100543.34
2022-10-11T17:17:41.684Z,100541.72
2022-10-11T17:20:37.723Z,100548.63
2022-10-11T17:23:15.391Z,100543.47
2022-10-11T17:25:51.290Z,100539.97
2022-10-11T17:28:22.585Z,100543.56
2022-10-11T17:30:56.502Z,100548.16
2022-10-11T17:33:23.996Z,100548.87
2022-10-11T17:35:51.036Z,100549.88
2022-10-11T17:38:19.830Z,100555.81
2022-10-11T17:40:47.479Z,100549.69
2022-10-11T17:43:15.785Z,100558.44
2022-10-11T17:45:42.792Z,100555.94
2022-10-11T17:48:09.944Z,100564.66
2022-10-11T17:50:39.888Z,100554.19
2022-10-11T17:53:06.881Z,100564.59
2022-10-11T17:55:34.265Z,100561.16
2022-10-11T17:58:01.140Z,100553.31
2022-10-11T18:00:29.716Z,100550.69
2022-10-11T18:02:57.398Z,100562.84
2022-10-11T18:05:24.567Z,100556.63
2022-10-11T18:07:52.830Z,100558.38
2022-10-11T18:10:20.062Z,100550.47
2022-10-11T18:12:47.222Z,100553.09
2022-10-11T18:15:14.089Z,100554.16
2022-10-11T18:17:41.076Z,100556.69
2022-10-11T18:20:08.501Z,100563.75
2022-10-11T18:22:35.294Z,100562.84
2022-10-11T18:25:02.360Z,100568.09
2022-10-11T18:27:29.289Z,100567.31
2022-10-11T18:29:56.326Z,100568.22
2022-10-11T18:32:23.646Z,100573.56
2022-10-11T18:34:50.683Z,100565.63
2022-10-11T18:37:17.405Z,100557.72
2022-10-11T18:39:44.384Z,100564.59
2022-10-11T18:42:12.518Z,100565.44
2022-10-11T18:44:39.565Z,100575.09
2022-10-11T18:47:06.661Z,100562.87
2022-10-11T18:49:33.428Z,100559.34
2022-10-11T18:52:00.181Z,100562.16
2022-10-11T18:54:27.879Z,100558.75
2022-10-11T18:56:54.767Z,100560.47
2022-10-11T18:59:21.624Z,100563.06
2022-10-11T19:01:52.047Z,100557.84
2022-10-11T19:04:19.509Z,100559.66
2022-10-11T19:06:48.242Z,100556.19
2022-10-11T19:09:21.882Z,100559.69
2022-10-11T19:11:53.049Z,100567.66
2022-10-11T19:14:22.601Z,100568.56
2022-10-11T19:16:55.333Z,100568.56
2022-10-11T19:19:26.553Z,100568.53
2022-10-11T19:21:53.927Z,100570.25
2022-10-11T19:24:27.309Z,100571.19
2022-10-11T19:27:02.350Z,100579.06
2022-10-11T19:29:30.978Z,100575.63
2022-10-11T19:32:03.679Z,100573.97
2022-10-11T19:34:35.511Z,100579.16
2022-10-11T19:37:15.861Z,100579.09
2022-10-11T19:39:44.242Z,100577.28
2022-10-11T19:42:16.826Z,100579.09
2022-10-11T19:44:46.674Z,100585.34
2022-10-11T19:47:16.975Z,100585.28
2022-10-11T19:49:43.721Z,100580.88
2022-10-11T19:52:10.512Z,100577.44
2022-10-11T19:54:43.345Z,100582.75
2022-10-11T19:57:17.872Z,100581.78
2022-10-11T19:59:46.528Z,100584.50
2022-10-11T20:02:15.018Z,100586.31
2022-10-11T20:04:57.492Z,100586.28
2022-10-11T20:07:26.314Z,100579.19
2022-10-11T20:09:55.941Z,100587.97
2022-10-11T20:12:29.576Z,100594.94
2022-10-11T20:14:56.706Z,100597.56
2022-10-11T20:17:43.345Z,100596.75
2022-10-11T20:20:15.477Z,100600.28
2022-10-11T20:22:42.184Z,100593.25
2022-10-11T20:25:08.948Z,100591.50
2022-10-11T20:27:38.545Z,100600.25
2022-10-11T20:30:05.515Z,100599.31
2022-10-11T20:32:34.204Z,100600.22
2022-10-11T20:35:02.272Z,100601.12
2022-10-11T20:37:28.961Z,100601.06
2022-10-11T20:39:55.596Z,100601.97
2022-10-11T20:42:25.298Z,100602.03
2022-10-11T20:44:54.275Z,100597.63
2022-10-11T20:47:20.944Z,100601.91
2022-10-11T20:49:47.980Z,100605.53
2022-10-11T20:52:14.633Z,100607.31
2022-10-11T20:54:41.684Z,100603.81
2022-10-11T20:57:08.655Z,100607.31
2022-10-11T20:59:35.746Z,100604.72
2022-10-11T21:02:02.454Z,100608.22
2022-10-11T21:04:29.617Z,100603.84
2022-10-11T21:06:56.445Z,100605.59
2022-10-11T21:09:23.206Z,100603.84
2022-10-11T21:11:50.107Z,100602.09
2022-10-11T21:14:17.273Z,100597.72
2022-10-11T21:16:43.941Z,100596.87
2022-10-11T21:19:12.340Z,100595.12
2022-10-11T21:21:39.074Z,100600.34
2022-10-11T21:24:06.465Z,100596.87
2022-10-11T21:26:35.226Z,100591.66
2022-10-11T21:29:04.069Z,100598.62
2022-10-11T21:31:34.143Z,100596.87
2022-10-11T21:34:02.161Z,100606.47
2022-10-11T21:36:28.889Z,100613.47
2022-10-11T21:38:56.163Z,100609.06
2022-10-11T21:41:25.459Z,100609.03
2022-10-11T21:43:52.201Z,100609.94
2022-10-11T21:46:19.925Z,100614.28
2022-10-11T21:48:47.294Z,100609.03
2022-10-11T21:53:46.505Z,100598.59
2022-10-11T21:56:13.460Z,100610.75
2022-10-11T21:58:40.147Z,100606.28
2022-10-11T22:01:06.914Z,100608.84
2022-10-11T22:03:34.267Z,100600.06
2022-10-11T22:06:04.057Z,100608.03
2022-10-11T22:08:31.166Z,100610.63
2022-10-11T22:10:59.080Z,100608.97
2022-10-11T22:13:26.224Z,100609.00
2022-10-11T22:15:53.029Z,100606.34
2022-10-11T22:18:20.388Z,100607.19
2022-10-11T22:20:47.124Z,100603.69
2022-10-11T22:23:14.237Z,100600.16
2022-10-11T22:25:41.337Z,100611.38
2022-10-11T22:28:08.414Z,100602.78
2022-10-11T22:30:35.199Z,100607.16
2022-10-11T22:33:02.670Z,100607.09
2022-10-11T22:35:31.391Z,100604.44
2022-10-11T22:38:00.300Z,100612.16
2022-10-11T22:40:27.504Z,100605.28
2022-10-11T22:42:54.151Z,100610.31
2022-10-11T22:45:20.808Z,100611.31
2022-10-11T22:47:47.910Z,100606.03
2022-10-11T22:50:14.628Z,100605.28
2022-10-11T22:52:41.376Z,100606.16
2022-10-11T22:55:08.827Z,100612.19
2022-10-11T22:57:35.647Z,100603.50
2022-10-11T23:00:04.041Z,100605.28
2022-10-11T23:02:30.992Z,100601.69
2022-10-11T23:04:58.358Z,100603.47
2022-10-11T23:07:24.996Z,100601.69
2022-10-11T23:09:51.946Z,100601.69
2022-10-11T23:12:18.626Z,100614.53
2022-10-11T23:14:45.281Z,100608.59
2022-10-11T23:17:12.271Z,100608.44
2022-10-11T23:19:38.947Z,100613.63
2022-10-11T23:22:05.713Z,100615.41
2022-10-11T23:24:32.664Z,100615.41
2022-10-11T23:26:59.573Z,100620.69
2022-10-11T23:29:26.259Z,100618.97
2022-10-11T23:31:53.298Z,100620.56
2022-10-11T23:34:21.059Z,100620.59
2022-10-11T23:36:47.704Z,100625.75
2022-10-11T23:39:16.221Z,100618.75
2022-10-11T23:41:43.637Z,100624.16
2022-10-11T23:44:10.624Z,100622.22
2022-10-11T23:46:37.554Z,100625.62
2022-10-11T23:49:04.320Z,100636.06
2022-10-11T23:51:33.618Z,100627.53
2022-10-11T23:54:00.537Z,100632.84
2022-10-11T23:56:27.210Z,100636.34
2022-10-11T23:58:53.929Z,100645.03
